sensor_id;sensor_type;location;lat;lon;timestamp;temperature;humidity
72380;SHT30;60354;47.798;12.472;2022-08-20T00:00:31;17.19;90.88
72380;SHT30;60354;47.798;12.472;2022-08-20T00:03:09;17.16;90.58
72380;SHT30;60354;47.798;12.472;2022-08-20T00:05:38;17.16;90.71
72380;SHT30;60354;47.798;12.472;2022-08-20T00:08:04;17.20;91.43
72380;SHT30;60354;47.798;12.472;2022-08-20T00:10:32;17.17;91.20
72380;SHT30;60354;47.798;12.472;2022-08-20T00:12:57;17.16;91.79
72380;SHT30;60354;47.798;12.472;2022-08-20T00:15:27;17.23;91.51
72380;SHT30;60354;47.798;12.472;2022-08-20T00:17:54;17.20;92.06
72380;SHT30;60354;47.798;12.472;2022-08-20T00:20:23;17.23;91.32
72380;SHT30;60354;47.798;12.472;2022-08-20T00:22:48;17.22;91.56
72380;SHT30;60354;47.798;12.472;2022-08-20T00:25:16;17.27;91.31
72380;SHT30;60354;47.798;12.472;2022-08-20T00:27:42;17.31;91.24
72380;SHT30;60354;47.798;12.472;2022-08-20T00:30:10;17.34;91.05
72380;SHT30;60354;47.798;12.472;2022-08-20T00:32:51;17.33;91.02
72380;SHT30;60354;47.798;12.472;2022-08-20T00:35:19;17.38;90.06
72380;SHT30;60354;47.798;12.472;2022-08-20T00:37:44;17.40;90.49
72380;SHT30;60354;47.798;12.472;2022-08-20T00:40:12;17.37;90.96
72380;SHT30;60354;47.798;12.472;2022-08-20T00:42:51;17.40;90.97
72380;SHT30;60354;47.798;12.472;2022-08-20T00:45:18;17.44;90.91
72380;SHT30;60354;47.798;12.472;2022-08-20T00:47:44;17.43;90.65
72380;SHT30;60354;47.798;12.472;2022-08-20T00:50:14;17.47;90.05
72380;SHT30;60354;47.798;12.472;2022-08-20T00:52:42;17.51;89.88
72380;SHT30;60354;47.798;12.472;2022-08-20T00:55:11;17.48;89.97
72380;SHT30;60354;47.798;12.472;2022-08-20T00:57:40;17.41;89.94
72380;SHT30;60354;47.798;12.472;2022-08-20T01:00:18;17.31;89.92
72380;SHT30;60354;47.798;12.472;2022-08-20T01:02:46;17.33;89.03
72380;SHT30;60354;47.798;12.472;2022-08-20T01:05:12;17.36;90.43
72380;SHT30;60354;47.798;12.472;2022-08-20T01:07:40;17.38;90.43
72380;SHT30;60354;47.798;12.472;2022-08-20T01:10:13;17.34;90.92
72380;SHT30;60354;47.798;12.472;2022-08-20T01:12:42;17.36;89.52
72380;SHT30;60354;47.798;12.472;2022-08-20T01:15:12;17.34;89.17
72380;SHT30;60354;47.798;12.472;2022-08-20T01:17:42;17.24;90.66
72380;SHT30;60354;47.798;12.472;2022-08-20T01:22:53;17.31;90.84
72380;SHT30;60354;47.798;12.472;2022-08-20T01:25:53;17.33;91.08
72380;SHT30;60354;47.798;12.472;2022-08-20T01:31:16;17.19;91.16
72380;SHT30;60354;47.798;12.472;2022-08-20T01:33:43;17.23;90.50
72380;SHT30;60354;47.798;12.472;2022-08-20T01:36:09;17.20;90.17
72380;SHT30;60354;47.798;12.472;2022-08-20T01:38:35;17.09;91.54
72380;SHT30;60354;47.798;12.472;2022-08-20T01:43:36;17.12;91.73
72380;SHT30;60354;47.798;12.472;2022-08-20T01:46:02;16.96;92.88
72380;SHT30;60354;47.798;12.472;2022-08-20T01:48:28;17.03;92.49
72380;SHT30;60354;47.798;12.472;2022-08-20T01:51:13;17.15;92.10
72380;SHT30;60354;47.798;12.472;2022-08-20T01:53:44;17.13;91.94
72380;SHT30;60354;47.798;12.472;2022-08-20T01:56:12;17.15;91.71
72380;SHT30;60354;47.798;12.472;2022-08-20T01:58:45;17.20;91.37
72380;SHT30;60354;47.798;12.472;2022-08-20T02:03:58;17.17;91.62
72380;SHT30;60354;47.798;12.472;2022-08-20T02:06:25;17.22;91.15
72380;SHT30;60354;47.798;12.472;2022-08-20T02:08:53;17.22;91.22
72380;SHT30;60354;47.798;12.472;2022-08-20T02:11:20;17.24;91.01
72380;SHT30;60354;47.798;12.472;2022-08-20T02:13:45;17.27;90.63
72380;SHT30;60354;47.798;12.472;2022-08-20T02:16:14;17.27;90.83
72380;SHT30;60354;47.798;12.472;2022-08-20T02:18:39;17.19;90.18
72380;SHT30;60354;47.798;12.472;2022-08-20T02:21:05;17.10;90.29
72380;SHT30;60354;47.798;12.472;2022-08-20T02:23:30;17.10;90.39
72380;SHT30;60354;47.798;12.472;2022-08-20T02:25:56;17.16;91.07
72380;SHT30;60354;47.798;12.472;2022-08-20T02:28:21;17.17;90.60
72380;SHT30;60354;47.798;12.472;2022-08-20T02:30:50;17.23;89.58
72380;SHT30;60354;47.798;12.472;2022-08-20T02:33:17;17.26;89.19
72380;SHT30;60354;47.798;12.472;2022-08-20T02:35:46;17.31;89.86
72380;SHT30;60354;47.798;12.472;2022-08-20T02:38:12;17.36;89.74
72380;SHT30;60354;47.798;12.472;2022-08-20T02:40:42;17.34;90.46
72380;SHT30;60354;47.798;12.472;2022-08-20T02:43:09;17.38;90.99
72380;SHT30;60354;47.798;12.472;2022-08-20T02:45:35;17.38;90.54
72380;SHT30;60354;47.798;12.472;2022-08-20T02:48:09;17.37;90.67
72380;SHT30;60354;47.798;12.472;2022-08-20T02:50:34;17.36;90.88
72380;SHT30;60354;47.798;12.472;2022-08-20T02:52:59;17.34;90.13
72380;SHT30;60354;47.798;12.472;2022-08-20T02:55:25;17.33;90.89
72380;SHT30;60354;47.798;12.472;2022-08-20T02:57:53;17.34;89.77
72380;SHT30;60354;47.798;12.472;2022-08-20T03:00:20;17.34;90.01
72380;SHT30;60354;47.798;12.472;2022-08-20T03:02:47;17.30;89.63
72380;SHT30;60354;47.798;12.472;2022-08-20T03:05:13;17.34;89.93
72380;SHT30;60354;47.798;12.472;2022-08-20T03:07:47;17.27;90.81
72380;SHT30;60354;47.798;12.472;2022-08-20T03:10:13;17.26;90.42
72380;SHT30;60354;47.798;12.472;2022-08-20T03:12:39;17.26;90.67
72380;SHT30;60354;47.798;12.472;2022-08-20T03:15:06;17.17;90.66
72380;SHT30;60354;47.798;12.472;2022-08-20T03:17:33;17.17;90.55
72380;SHT30;60354;47.798;12.472;2022-08-20T03:19:59;17.12;90.79
72380;SHT30;60354;47.798;12.472;2022-08-20T03:22:25;17.07;90.73
72380;SHT30;60354;47.798;12.472;2022-08-20T03:24:50;16.97;91.79
72380;SHT30;60354;47.798;12.472;2022-08-20T03:27:16;17.05;91.61
72380;SHT30;60354;47.798;12.472;2022-08-20T03:29:41;17.00;91.45
72380;SHT30;60354;47.798;12.472;2022-08-20T03:32:07;16.97;90.91
72380;SHT30;60354;47.798;12.472;2022-08-20T03:34:33;16.97;91.25
72380;SHT30;60354;47.798;12.472;2022-08-20T03:36:59;17.02;91.04
72380;SHT30;60354;47.798;12.472;2022-08-20T03:39:24;17.06;91.63
72380;SHT30;60354;47.798;12.472;2022-08-20T03:41:49;17.07;92.05
72380;SHT30;60354;47.798;12.472;2022-08-20T03:44:15;17.15;91.74
72380;SHT30;60354;47.798;12.472;2022-08-20T03:46:40;17.15;91.13
72380;SHT30;60354;47.798;12.472;2022-08-20T03:49:06;17.07;90.82
72380;SHT30;60354;47.798;12.472;2022-08-20T03:51:32;17.10;90.42
72380;SHT30;60354;47.798;12.472;2022-08-20T03:53:58;17.06;90.43
72380;SHT30;60354;47.798;12.472;2022-08-20T03:56:25;17.00;90.48
72380;SHT30;60354;47.798;12.472;2022-08-20T03:58:51;17.02;90.46
72380;SHT30;60354;47.798;12.472;2022-08-20T04:01:16;17.05;90.93
72380;SHT30;60354;47.798;12.472;2022-08-20T04:03:42;17.03;90.55
72380;SHT30;60354;47.798;12.472;2022-08-20T04:06:08;16.89;91.78
72380;SHT30;60354;47.798;12.472;2022-08-20T04:08:34;16.82;91.29
72380;SHT30;60354;47.798;12.472;2022-08-20T04:10:59;16.87;91.40
72380;SHT30;60354;47.798;12.472;2022-08-20T04:13:26;16.79;92.23
72380;SHT30;60354;47.798;12.472;2022-08-20T04:15:53;16.83;92.39
72380;SHT30;60354;47.798;12.472;2022-08-20T04:18:23;16.93;92.31
72380;SHT30;60354;47.798;12.472;2022-08-20T04:20:51;16.97;92.42
72380;SHT30;60354;47.798;12.472;2022-08-20T04:23:17;17.02;92.21
72380;SHT30;60354;47.798;12.472;2022-08-20T04:25:44;17.09;92.05
72380;SHT30;60354;47.798;12.472;2022-08-20T04:28:14;17.12;91.60
72380;SHT30;60354;47.798;12.472;2022-08-20T04:30:40;17.13;91.73
72380;SHT30;60354;47.798;12.472;2022-08-20T04:33:07;17.15;91.85
72380;SHT30;60354;47.798;12.472;2022-08-20T04:35:33;17.12;91.44
72380;SHT30;60354;47.798;12.472;2022-08-20T04:38:05;17.13;91.42
72380;SHT30;60354;47.798;12.472;2022-08-20T04:40:31;17.13;91.61
72380;SHT30;60354;47.798;12.472;2022-08-20T04:43:16;17.10;90.66
72380;SHT30;60354;47.798;12.472;2022-08-20T04:45:42;17.02;90.83
72380;SHT30;60354;47.798;12.472;2022-08-20T04:48:07;17.05;91.13
72380;SHT30;60354;47.798;12.472;2022-08-20T04:50:36;17.03;91.45
72380;SHT30;60354;47.798;12.472;2022-08-20T04:53:07;17.03;92.00
72380;SHT30;60354;47.798;12.472;2022-08-20T04:55:34;17.07;91.84
72380;SHT30;60354;47.798;12.472;2022-08-20T04:58:04;17.02;92.06
72380;SHT30;60354;47.798;12.472;2022-08-20T05:00:31;17.12;91.47
72380;SHT30;60354;47.798;12.472;2022-08-20T05:02:56;17.09;91.33
72380;SHT30;60354;47.798;12.472;2022-08-20T05:05:22;17.07;91.34
72380;SHT30;60354;47.798;12.472;2022-08-20T05:07:48;16.95;91.07
72380;SHT30;60354;47.798;12.472;2022-08-20T05:10:16;16.97;91.18
72380;SHT30;60354;47.798;12.472;2022-08-20T05:12:42;16.99;90.74
72380;SHT30;60354;47.798;12.472;2022-08-20T05:15:09;17.02;91.24
72380;SHT30;60354;47.798;12.472;2022-08-20T05:17:39;17.06;90.99
72380;SHT30;60354;47.798;12.472;2022-08-20T05:20:07;17.12;90.96
72380;SHT30;60354;47.798;12.472;2022-08-20T05:22:33;17.13;89.61
72380;SHT30;60354;47.798;12.472;2022-08-20T05:24:59;17.19;90.68
72380;SHT30;60354;47.798;12.472;2022-08-20T05:27:26;17.17;90.55
72380;SHT30;60354;47.798;12.472;2022-08-20T05:29:54;17.13;89.75
72380;SHT30;60354;47.798;12.472;2022-08-20T05:32:25;17.07;91.01
72380;SHT30;60354;47.798;12.472;2022-08-20T05:34:51;17.03;90.76
72380;SHT30;60354;47.798;12.472;2022-08-20T05:37:18;17.05;90.90
72380;SHT30;60354;47.798;12.472;2022-08-20T05:39:44;17.06;90.68
72380;SHT30;60354;47.798;12.472;2022-08-20T05:42:09;17.03;90.76
72380;SHT30;60354;47.798;12.472;2022-08-20T05:44:36;17.09;90.82
72380;SHT30;60354;47.798;12.472;2022-08-20T05:47:03;17.13;90.34
72380;SHT30;60354;47.798;12.472;2022-08-20T05:49:29;17.13;90.85
72380;SHT30;60354;47.798;12.472;2022-08-20T05:51:55;17.12;90.82
72380;SHT30;60354;47.798;12.472;2022-08-20T05:54:21;17.13;89.75
72380;SHT30;60354;47.798;12.472;2022-08-20T05:56:49;17.16;89.56
72380;SHT30;60354;47.798;12.472;2022-08-20T05:59:15;17.13;90.57
72380;SHT30;60354;47.798;12.472;2022-08-20T06:01:41;17.16;90.17
72380;SHT30;60354;47.798;12.472;2022-08-20T06:04:08;17.12;90.76
72380;SHT30;60354;47.798;12.472;2022-08-20T06:07:02;17.13;90.66
72380;SHT30;60354;47.798;12.472;2022-08-20T06:09:28;17.10;90.58
72380;SHT30;60354;47.798;12.472;2022-08-20T06:11:54;17.09;90.71
72380;SHT30;60354;47.798;12.472;2022-08-20T06:14:19;17.09;90.40
72380;SHT30;60354;47.798;12.472;2022-08-20T06:16:45;17.13;89.85
72380;SHT30;60354;47.798;12.472;2022-08-20T06:19:11;17.10;90.42
72380;SHT30;60354;47.798;12.472;2022-08-20T06:21:37;17.16;89.77
72380;SHT30;60354;47.798;12.472;2022-08-20T06:24:04;17.16;90.08
72380;SHT30;60354;47.798;12.472;2022-08-20T06:26:29;17.20;88.85
72380;SHT30;60354;47.798;12.472;2022-08-20T06:28:56;17.26;89.04
72380;SHT30;60354;47.798;12.472;2022-08-20T06:31:22;17.19;90.36
72380;SHT30;60354;47.798;12.472;2022-08-20T06:33:47;17.24;90.22
72380;SHT30;60354;47.798;12.472;2022-08-20T06:36:13;17.28;90.38
72380;SHT30;60354;47.798;12.472;2022-08-20T06:38:38;17.33;90.26
72380;SHT30;60354;47.798;12.472;2022-08-20T06:41:04;17.38;90.12
72380;SHT30;60354;47.798;12.472;2022-08-20T06:43:30;17.38;90.12
72380;SHT30;60354;47.798;12.472;2022-08-20T06:45:55;17.43;89.68
72380;SHT30;60354;47.798;12.472;2022-08-20T06:48:22;17.50;90.20
72380;SHT30;60354;47.798;12.472;2022-08-20T06:50:48;17.46;90.18
72380;SHT30;60354;47.798;12.472;2022-08-20T06:53:16;17.33;90.38
72380;SHT30;60354;47.798;12.472;2022-08-20T06:55:48;17.33;90.17
72380;SHT30;60354;47.798;12.472;2022-08-20T06:58:14;17.31;90.13
72380;SHT30;60354;47.798;12.472;2022-08-20T07:00:42;17.33;89.36
72380;SHT30;60354;47.798;12.472;2022-08-20T07:03:08;17.37;89.98
72380;SHT30;60354;47.798;12.472;2022-08-20T07:05:37;17.40;90.79
72380;SHT30;60354;47.798;12.472;2022-08-20T07:08:03;17.41;90.39
72380;SHT30;60354;47.798;12.472;2022-08-20T07:10:30;17.44;90.50
72380;SHT30;60354;47.798;12.472;2022-08-20T07:12:56;17.54;89.64
72380;SHT30;60354;47.798;12.472;2022-08-20T07:15:24;17.58;89.85
72380;SHT30;60354;47.798;12.472;2022-08-20T07:17:58;17.58;89.62
72380;SHT30;60354;47.798;12.472;2022-08-20T07:20:24;17.61;89.51
72380;SHT30;60354;47.798;12.472;2022-08-20T07:22:49;17.58;89.35
72380;SHT30;60354;47.798;12.472;2022-08-20T07:25:18;17.60;89.66
72380;SHT30;60354;47.798;12.472;2022-08-20T07:27:45;17.51;89.87
72380;SHT30;60354;47.798;12.472;2022-08-20T07:30:20;17.57;89.55
72380;SHT30;60354;47.798;12.472;2022-08-20T07:33:04;17.60;89.83
72380;SHT30;60354;47.798;12.472;2022-08-20T07:35:30;17.63;90.13
72380;SHT30;60354;47.798;12.472;2022-08-20T07:37:56;17.73;89.76
72380;SHT30;60354;47.798;12.472;2022-08-20T07:40:29;17.75;90.49
72380;SHT30;60354;47.798;12.472;2022-08-20T07:42:57;17.75;90.77
72380;SHT30;60354;47.798;12.472;2022-08-20T07:45:25;17.70;89.61
72380;SHT30;60354;47.798;12.472;2022-08-20T07:47:52;17.78;89.75
72380;SHT30;60354;47.798;12.472;2022-08-20T07:50:23;17.87;89.49
72380;SHT30;60354;47.798;12.472;2022-08-20T07:52:49;17.87;90.17
72380;SHT30;60354;47.798;12.472;2022-08-20T07:55:18;17.94;89.40
72380;SHT30;60354;47.798;12.472;2022-08-20T07:57:47;17.87;89.87
72380;SHT30;60354;47.798;12.472;2022-08-20T08:00:15;17.84;89.65
72380;SHT30;60354;47.798;12.472;2022-08-20T08:02:42;17.87;89.96
72380;SHT30;60354;47.798;12.472;2022-08-20T08:05:08;17.87;89.76
72380;SHT30;60354;47.798;12.472;2022-08-20T08:07:35;17.87;89.42
72380;SHT30;60354;47.798;12.472;2022-08-20T08:10:03;17.92;90.14
72380;SHT30;60354;47.798;12.472;2022-08-20T08:12:35;17.97;90.16
72380;SHT30;60354;47.798;12.472;2022-08-20T08:15:06;18.01;90.37
72380;SHT30;60354;47.798;12.472;2022-08-20T08:17:32;18.01;90.39
72380;SHT30;60354;47.798;12.472;2022-08-20T08:19:58;17.99;90.15
72380;SHT30;60354;47.798;12.472;2022-08-20T08:22:24;17.99;89.35
72380;SHT30;60354;47.798;12.472;2022-08-20T08:24:50;17.88;89.97
72380;SHT30;60354;47.798;12.472;2022-08-20T08:27:15;17.79;90.09
72380;SHT30;60354;47.798;12.472;2022-08-20T08:29:43;17.81;89.97
72380;SHT30;60354;47.798;12.472;2022-08-20T08:32:09;17.79;90.33
72380;SHT30;60354;47.798;12.472;2022-08-20T08:34:35;17.75;90.61
72380;SHT30;60354;47.798;12.472;2022-08-20T08:37:02;18.01;85.34
72380;SHT30;60354;47.798;12.472;2022-08-20T08:39:29;18.26;84.93
72380;SHT30;60354;47.798;12.472;2022-08-20T08:41:55;18.30;88.48
72380;SHT30;60354;47.798;12.472;2022-08-20T08:44:29;18.25;88.65
72380;SHT30;60354;47.798;12.472;2022-08-20T08:47:01;18.26;88.25
72380;SHT30;60354;47.798;12.472;2022-08-20T08:49:33;18.16;88.10
72380;SHT30;60354;47.798;12.472;2022-08-20T08:52:04;18.15;88.92
72380;SHT30;60354;47.798;12.472;2022-08-20T08:54:33;18.13;89.77
72380;SHT30;60354;47.798;12.472;2022-08-20T08:56:59;18.08;89.55
72380;SHT30;60354;47.798;12.472;2022-08-20T08:59:28;18.10;89.54
72380;SHT30;60354;47.798;12.472;2022-08-20T09:01:56;18.04;89.48
72380;SHT30;60354;47.798;12.472;2022-08-20T09:04:33;17.99;89.64
72380;SHT30;60354;47.798;12.472;2022-08-20T09:07:01;18.04;89.41
72380;SHT30;60354;47.798;12.472;2022-08-20T09:09:34;18.08;88.72
72380;SHT30;60354;47.798;12.472;2022-08-20T09:12:11;18.08;87.50
72380;SHT30;60354;47.798;12.472;2022-08-20T09:14:37;18.13;87.81
72380;SHT30;60354;47.798;12.472;2022-08-20T09:17:03;18.18;88.90
72380;SHT30;60354;47.798;12.472;2022-08-20T09:19:29;18.19;88.02
72380;SHT30;60354;47.798;12.472;2022-08-20T09:21:54;18.26;89.61
72380;SHT30;60354;47.798;12.472;2022-08-20T09:24:20;18.26;89.58
72380;SHT30;60354;47.798;12.472;2022-08-20T09:26:45;18.24;89.23
72380;SHT30;60354;47.798;12.472;2022-08-20T09:29:11;18.16;89.68
72380;SHT30;60354;47.798;12.472;2022-08-20T09:31:37;18.21;90.01
72380;SHT30;60354;47.798;12.472;2022-08-20T09:34:02;18.19;90.12
72380;SHT30;60354;47.798;12.472;2022-08-20T09:36:28;18.18;90.24
72380;SHT30;60354;47.798;12.472;2022-08-20T09:38:53;18.28;89.75
72380;SHT30;60354;47.798;12.472;2022-08-20T09:41:19;18.30;89.99
72380;SHT30;60354;47.798;12.472;2022-08-20T09:43:44;18.36;89.57
72380;SHT30;60354;47.798;12.472;2022-08-20T09:46:10;18.43;90.36
72380;SHT30;60354;47.798;12.472;2022-08-20T09:48:35;18.52;89.84
72380;SHT30;60354;47.798;12.472;2022-08-20T09:51:02;18.47;89.08
72380;SHT30;60354;47.798;12.472;2022-08-20T09:53:28;18.53;89.69
72380;SHT30;60354;47.798;12.472;2022-08-20T09:55:54;18.52;89.98
72380;SHT30;60354;47.798;12.472;2022-08-20T10:01:06;18.46;90.25
72380;SHT30;60354;47.798;12.472;2022-08-20T10:03:31;18.40;88.16
72380;SHT30;60354;47.798;12.472;2022-08-20T10:05:57;18.39;87.97
72380;SHT30;60354;47.798;12.472;2022-08-20T10:08:24;18.47;88.92
72380;SHT30;60354;47.798;12.472;2022-08-20T10:10:49;18.42;88.32
72380;SHT30;60354;47.798;12.472;2022-08-20T10:13:15;18.45;89.03
72380;SHT30;60354;47.798;12.472;2022-08-20T10:15:40;18.56;89.20
72380;SHT30;60354;47.798;12.472;2022-08-20T10:18:06;18.63;90.43
72380;SHT30;60354;47.798;12.472;2022-08-20T10:20:32;18.64;90.04
72380;SHT30;60354;47.798;12.472;2022-08-20T10:22:59;18.74;89.37
72380;SHT30;60354;47.798;12.472;2022-08-20T10:25:24;18.74;87.49
72380;SHT30;60354;47.798;12.472;2022-08-20T10:27:50;18.63;88.72
72380;SHT30;60354;47.798;12.472;2022-08-20T10:30:15;18.50;88.66
72380;SHT30;60354;47.798;12.472;2022-08-20T10:32:41;18.68;88.78
72380;SHT30;60354;47.798;12.472;2022-08-20T10:35:07;18.94;89.68
72380;SHT30;60354;47.798;12.472;2022-08-20T10:37:33;19.00;88.51
72380;SHT30;60354;47.798;12.472;2022-08-20T10:39:59;19.27;89.85
72380;SHT30;60354;47.798;12.472;2022-08-20T10:42:24;19.27;87.53
72380;SHT30;60354;47.798;12.472;2022-08-20T10:44:50;19.25;88.95
72380;SHT30;60354;47.798;12.472;2022-08-20T10:49:45;19.41;87.77
72380;SHT30;60354;47.798;12.472;2022-08-20T10:52:10;19.36;88.00
72380;SHT30;60354;47.798;12.472;2022-08-20T10:54:36;19.14;86.02
72380;SHT30;60354;47.798;12.472;2022-08-20T10:57:05;19.28;86.83
72380;SHT30;60354;47.798;12.472;2022-08-20T10:59:31;19.31;86.39
72380;SHT30;60354;47.798;12.472;2022-08-20T11:01:56;19.22;84.31
72380;SHT30;60354;47.798;12.472;2022-08-20T11:04:22;19.25;84.87
72380;SHT30;60354;47.798;12.472;2022-08-20T11:06:47;19.42;87.36
72380;SHT30;60354;47.798;12.472;2022-08-20T11:09:13;19.46;86.67
72380;SHT30;60354;47.798;12.472;2022-08-20T11:11:38;19.55;86.48
72380;SHT30;60354;47.798;12.472;2022-08-20T11:14:03;19.63;86.10
72380;SHT30;60354;47.798;12.472;2022-08-20T11:16:29;19.72;85.65
72380;SHT30;60354;47.798;12.472;2022-08-20T11:18:54;19.72;84.90
72380;SHT30;60354;47.798;12.472;2022-08-20T11:21:20;19.90;87.00
72380;SHT30;60354;47.798;12.472;2022-08-20T11:23:45;19.90;84.87
72380;SHT30;60354;47.798;12.472;2022-08-20T11:26:21;19.87;83.40
72380;SHT30;60354;47.798;12.472;2022-08-20T11:28:47;19.96;84.25
72380;SHT30;60354;47.798;12.472;2022-08-20T11:31:12;19.99;86.03
72380;SHT30;60354;47.798;12.472;2022-08-20T11:33:38;20.10;85.99
72380;SHT30;60354;47.798;12.472;2022-08-20T11:36:03;20.13;83.85
72380;SHT30;60354;47.798;12.472;2022-08-20T11:38:29;20.03;83.54
72380;SHT30;60354;47.798;12.472;2022-08-20T11:40:55;19.87;84.03
72380;SHT30;60354;47.798;12.472;2022-08-20T11:43:20;20.06;85.37
72380;SHT30;60354;47.798;12.472;2022-08-20T11:45:51;20.03;84.19
72380;SHT30;60354;47.798;12.472;2022-08-20T11:48:18;20.10;83.82
72380;SHT30;60354;47.798;12.472;2022-08-20T11:50:44;20.13;85.62
72380;SHT30;60354;47.798;12.472;2022-08-20T11:53:09;20.26;84.93
72380;SHT30;60354;47.798;12.472;2022-08-20T11:55:35;20.23;84.11
72380;SHT30;60354;47.798;12.472;2022-08-20T11:58:01;20.23;85.30
72380;SHT30;60354;47.798;12.472;2022-08-20T12:00:28;20.21;83.97
72380;SHT30;60354;47.798;12.472;2022-08-20T12:02:54;20.06;83.03
72380;SHT30;60354;47.798;12.472;2022-08-20T12:05:19;20.06;83.71
72380;SHT30;60354;47.798;12.472;2022-08-20T12:07:46;19.96;84.53
72380;SHT30;60354;47.798;12.472;2022-08-20T12:10:12;19.79;84.75
72380;SHT30;60354;47.798;12.472;2022-08-20T12:12:37;19.93;85.37
72380;SHT30;60354;47.798;12.472;2022-08-20T12:15:05;20.01;84.94
72380;SHT30;60354;47.798;12.472;2022-08-20T12:17:32;20.09;84.35
72380;SHT30;60354;47.798;12.472;2022-08-20T12:20:01;20.12;84.95
72380;SHT30;60354;47.798;12.472;2022-08-20T12:22:27;20.06;84.39
72380;SHT30;60354;47.798;12.472;2022-08-20T12:24:53;20.09;85.35
72380;SHT30;60354;47.798;12.472;2022-08-20T12:27:20;20.17;86.60
72380;SHT30;60354;47.798;12.472;2022-08-20T12:29:48;20.17;86.14
72380;SHT30;60354;47.798;12.472;2022-08-20T12:32:16;20.07;84.64
72380;SHT30;60354;47.798;12.472;2022-08-20T12:34:42;20.07;84.64
72380;SHT30;60354;47.798;12.472;2022-08-20T12:37:14;20.14;85.76
72380;SHT30;60354;47.798;12.472;2022-08-20T12:39:43;20.13;84.65
72380;SHT30;60354;47.798;12.472;2022-08-20T12:42:09;19.97;84.40
72380;SHT30;60354;47.798;12.472;2022-08-20T12:44:36;19.97;83.71
72380;SHT30;60354;47.798;12.472;2022-08-20T12:49:40;20.00;84.51
72380;SHT30;60354;47.798;12.472;2022-08-20T12:52:06;20.06;84.23
72380;SHT30;60354;47.798;12.472;2022-08-20T12:54:32;20.09;84.75
72380;SHT30;60354;47.798;12.472;2022-08-20T12:56:58;20.00;83.43
72380;SHT30;60354;47.798;12.472;2022-08-20T12:59:24;19.90;84.53
72380;SHT30;60354;47.798;12.472;2022-08-20T13:01:51;19.85;83.72
72380;SHT30;60354;47.798;12.472;2022-08-20T13:04:17;19.79;84.05
72380;SHT30;60354;47.798;12.472;2022-08-20T13:06:43;19.76;84.33
72380;SHT30;60354;47.798;12.472;2022-08-20T13:09:09;19.86;85.67
72380;SHT30;60354;47.798;12.472;2022-08-20T13:11:34;19.90;85.38
72380;SHT30;60354;47.798;12.472;2022-08-20T13:14:00;19.87;84.67
72380;SHT30;60354;47.798;12.472;2022-08-20T13:16:25;19.79;83.92
72380;SHT30;60354;47.798;12.472;2022-08-20T13:18:51;19.80;84.05
72380;SHT30;60354;47.798;12.472;2022-08-20T13:21:16;19.83;84.35
72380;SHT30;60354;47.798;12.472;2022-08-20T13:23:42;19.89;84.98
72380;SHT30;60354;47.798;12.472;2022-08-20T13:26:07;19.83;85.24
72380;SHT30;60354;47.798;12.472;2022-08-20T13:28:33;19.80;83.74
72380;SHT30;60354;47.798;12.472;2022-08-20T13:30:59;19.80;83.88
72380;SHT30;60354;47.798;12.472;2022-08-20T13:33:27;19.79;84.33
72380;SHT30;60354;47.798;12.472;2022-08-20T13:35:53;19.79;85.79
72380;SHT30;60354;47.798;12.472;2022-08-20T13:38:19;19.79;84.44
72380;SHT30;60354;47.798;12.472;2022-08-20T13:40:45;19.68;85.23
72380;SHT30;60354;47.798;12.472;2022-08-20T13:43:10;19.59;85.60
72380;SHT30;60354;47.798;12.472;2022-08-20T13:45:36;19.62;85.70
72380;SHT30;60354;47.798;12.472;2022-08-20T13:48:03;19.68;85.75
72380;SHT30;60354;47.798;12.472;2022-08-20T13:50:29;19.59;85.02
72380;SHT30;60354;47.798;12.472;2022-08-20T13:52:55;19.65;84.66
72380;SHT30;60354;47.798;12.472;2022-08-20T13:55:22;19.66;85.00
72380;SHT30;60354;47.798;12.472;2022-08-20T13:57:48;19.56;84.52
72380;SHT30;60354;47.798;12.472;2022-08-20T14:00:25;19.58;84.90
72380;SHT30;60354;47.798;12.472;2022-08-20T14:02:51;19.56;84.17
72380;SHT30;60354;47.798;12.472;2022-08-20T14:05:16;19.46;85.32
72380;SHT30;60354;47.798;12.472;2022-08-20T14:07:42;19.36;84.94
72380;SHT30;60354;47.798;12.472;2022-08-20T14:10:11;19.34;85.67
72380;SHT30;60354;47.798;12.472;2022-08-20T14:12:38;19.32;86.59
72380;SHT30;60354;47.798;12.472;2022-08-20T14:15:04;19.29;86.35
72380;SHT30;60354;47.798;12.472;2022-08-20T14:17:32;19.19;85.96
72380;SHT30;60354;47.798;12.472;2022-08-20T14:20:02;19.22;86.63
72380;SHT30;60354;47.798;12.472;2022-08-20T14:22:28;19.21;85.50
72380;SHT30;60354;47.798;12.472;2022-08-20T14:24:54;19.11;85.80
72380;SHT30;60354;47.798;12.472;2022-08-20T14:27:22;19.10;85.61
72380;SHT30;60354;47.798;12.472;2022-08-20T14:29:48;19.14;86.09
72380;SHT30;60354;47.798;12.472;2022-08-20T14:32:14;19.12;86.43
72380;SHT30;60354;47.798;12.472;2022-08-20T14:34:40;19.01;86.14
72380;SHT30;60354;47.798;12.472;2022-08-20T14:37:16;18.91;86.51
72380;SHT30;60354;47.798;12.472;2022-08-20T14:39:43;18.86;86.40
72380;SHT30;60354;47.798;12.472;2022-08-20T14:42:09;18.88;86.38
72380;SHT30;60354;47.798;12.472;2022-08-20T14:44:35;18.88;86.17
72380;SHT30;60354;47.798;12.472;2022-08-20T14:47:16;18.73;86.33
72380;SHT30;60354;47.798;12.472;2022-08-20T14:49:42;18.67;86.16
72380;SHT30;60354;47.798;12.472;2022-08-20T14:52:09;18.67;86.05
72380;SHT30;60354;47.798;12.472;2022-08-20T14:54:35;18.64;86.02
72380;SHT30;60354;47.798;12.472;2022-08-20T14:57:01;18.59;86.46
72380;SHT30;60354;47.798;12.472;2022-08-20T14:59:26;18.70;86.65
72380;SHT30;60354;47.798;12.472;2022-08-20T15:01:52;18.66;86.38
72380;SHT30;60354;47.798;12.472;2022-08-20T15:04:17;18.59;86.09
72380;SHT30;60354;47.798;12.472;2022-08-20T15:06:47;18.57;86.29
72380;SHT30;60354;47.798;12.472;2022-08-20T15:09:13;18.50;86.41
72380;SHT30;60354;47.798;12.472;2022-08-20T15:11:38;18.45;86.82
72380;SHT30;60354;47.798;12.472;2022-08-20T15:14:09;18.47;86.96
72380;SHT30;60354;47.798;12.472;2022-08-20T15:16:35;18.47;86.68
72380;SHT30;60354;47.798;12.472;2022-08-20T15:19:01;18.47;86.49
72380;SHT30;60354;47.798;12.472;2022-08-20T15:21:26;18.42;86.07
72380;SHT30;60354;47.798;12.472;2022-08-20T15:23:52;18.45;86.20
72380;SHT30;60354;47.798;12.472;2022-08-20T15:26:18;18.42;86.33
72380;SHT30;60354;47.798;12.472;2022-08-20T15:28:43;18.35;86.12
72380;SHT30;60354;47.798;12.472;2022-08-20T15:31:10;18.40;86.10
72380;SHT30;60354;47.798;12.472;2022-08-20T15:33:36;18.35;86.70